sensor_id;sensor_type;location;lat;lon;timestamp;P1;durP1;ratioP1;P2;durP2;ratioP2
793;SDS011;380;48.738;9.214;2023-08-01T00:01:43;3.08;;;2.17;;
793;SDS011;380;48.738;9.214;2023-08-01T00:04:09;3.55;;;2.47;;
793;SDS011;380;48.738;9.214;2023-08-01T00:06:35;3.95;;;2.33;;
793;SDS011;380;48.738;9.214;2023-08-01T00:09:01;3.50;;;2.58;;
793;SDS011;380;48.738;9.214;2023-08-01T00:11:27;3.78;;;2.28;;
793;SDS011;380;48.738;9.214;2023-08-01T00:13:53;4.93;;;2.70;;
793;SDS011;380;48.738;9.214;2023-08-01T00:16:19;3.88;;;2.15;;
793;SDS011;380;48.738;9.214;2023-08-01T00:18:45;3.33;;;2.15;;
793;SDS011;380;48.738;9.214;2023-08-01T00:21:11;3.63;;;2.42;;
793;SDS011;380;48.738;9.214;2023-08-01T00:23:37;3.40;;;2.17;;
793;SDS011;380;48.738;9.214;2023-08-01T00:26:03;3.58;;;2.05;;
793;SDS011;380;48.738;9.214;2023-08-01T00:28:29;3.67;;;2.20;;
793;SDS011;380;48.738;9.214;2023-08-01T00:31:03;4.57;;;2.22;;
793;SDS011;380;48.738;9.214;2023-08-01T00:33:29;4.00;;;2.63;;
793;SDS011;380;48.738;9.214;2023-08-01T00:35:55;4.13;;;2.60;;
793;SDS011;380;48.738;9.214;2023-08-01T00:38:21;5.07;;;2.72;;
793;SDS011;380;48.738;9.214;2023-08-01T00:40:47;3.00;;;2.35;;
793;SDS011;380;48.738;9.214;2023-08-01T00:43:13;4.35;;;2.50;;
793;SDS011;380;48.738;9.214;2023-08-01T00:45:39;3.10;;;2.00;;
793;SDS011;380;48.738;9.214;2023-08-01T00:48:05;3.15;;;2.10;;
793;SDS011;380;48.738;9.214;2023-08-01T00:50:31;4.22;;;2.60;;
793;SDS011;380;48.738;9.214;2023-08-01T00:52:57;2.90;;;1.88;;
793;SDS011;380;48.738;9.214;2023-08-01T00:55:23;4.97;;;2.50;;
793;SDS011;380;48.738;9.214;2023-08-01T00:57:49;5.97;;;3.90;;
793;SDS011;380;48.738;9.214;2023-08-01T01:00:16;3.67;;;2.50;;
793;SDS011;380;48.738;9.214;2023-08-01T01:02:41;2.97;;;2.05;;
793;SDS011;380;48.738;9.214;2023-08-01T01:05:07;5.97;;;2.38;;
793;SDS011;380;48.738;9.214;2023-08-01T01:07:34;3.33;;;2.08;;
793;SDS011;380;48.738;9.214;2023-08-01T01:10:00;4.50;;;2.33;;
793;SDS011;380;48.738;9.214;2023-08-01T01:12:26;4.13;;;2.47;;
793;SDS011;380;48.738;9.214;2023-08-01T01:14:52;2.90;;;1.98;;
793;SDS011;380;48.738;9.214;2023-08-01T01:17:18;3.83;;;1.60;;
793;SDS011;380;48.738;9.214;2023-08-01T01:19:44;3.58;;;2.22;;
793;SDS011;380;48.738;9.214;2023-08-01T01:22:10;3.55;;;2.10;;
793;SDS011;380;48.738;9.214;2023-08-01T01:24:36;3.75;;;2.00;;
793;SDS011;380;48.738;9.214;2023-08-01T01:27:03;2.63;;;1.95;;
793;SDS011;380;48.738;9.214;2023-08-01T01:29:30;4.05;;;2.22;;
793;SDS011;380;48.738;9.214;2023-08-01T01:31:57;3.33;;;2.40;;
793;SDS011;380;48.738;9.214;2023-08-01T01:34:23;3.33;;;2.22;;
793;SDS011;380;48.738;9.214;2023-08-01T01:36:49;4.43;;;2.47;;
793;SDS011;380;48.738;9.214;2023-08-01T01:39:15;5.82;;;2.42;;
793;SDS011;380;48.738;9.214;2023-08-01T01:41:41;4.20;;;2.63;;
793;SDS011;380;48.738;9.214;2023-08-01T01:44:07;4.00;;;2.03;;
793;SDS011;380;48.738;9.214;2023-08-01T01:46:33;4.15;;;2.38;;
793;SDS011;380;48.738;9.214;2023-08-01T01:48:58;3.20;;;2.33;;
793;SDS011;380;48.738;9.214;2023-08-01T01:51:25;2.90;;;2.17;;
793;SDS011;380;48.738;9.214;2023-08-01T01:53:52;3.38;;;2.45;;
793;SDS011;380;48.738;9.214;2023-08-01T01:56:18;4.05;;;2.30;;
793;SDS011;380;48.738;9.214;2023-08-01T01:58:44;2.95;;;2.22;;
793;SDS011;380;48.738;9.214;2023-08-01T02:01:10;5.07;;;2.38;;
793;SDS011;380;48.738;9.214;2023-08-01T02:03:35;3.55;;;2.22;;
793;SDS011;380;48.738;9.214;2023-08-01T02:06:02;4.15;;;2.42;;
793;SDS011;380;48.738;9.214;2023-08-01T02:08:28;3.58;;;1.90;;
793;SDS011;380;48.738;9.214;2023-08-01T02:10:54;3.05;;;2.05;;
793;SDS011;380;48.738;9.214;2023-08-01T02:13:23;3.47;;;2.60;;
793;SDS011;380;48.738;9.214;2023-08-01T02:15:48;3.75;;;2.63;;
793;SDS011;380;48.738;9.214;2023-08-01T02:18:14;4.75;;;2.78;;
793;SDS011;380;48.738;9.214;2023-08-01T02:20:40;3.70;;;2.17;;
793;SDS011;380;48.738;9.214;2023-08-01T02:23:06;3.42;;;2.35;;
793;SDS011;380;48.738;9.214;2023-08-01T02:25:33;3.67;;;2.58;;
793;SDS011;380;48.738;9.214;2023-08-01T02:30:29;3.30;;;2.30;;
793;SDS011;380;48.738;9.214;2023-08-01T02:32:55;3.53;;;2.53;;
793;SDS011;380;48.738;9.214;2023-08-01T02:35:21;2.90;;;2.10;;
793;SDS011;380;48.738;9.214;2023-08-01T02:37:47;3.85;;;2.78;;
793;SDS011;380;48.738;9.214;2023-08-01T02:40:13;5.70;;;2.78;;
793;SDS011;380;48.738;9.214;2023-08-01T02:42:39;3.90;;;2.08;;
793;SDS011;380;48.738;9.214;2023-08-01T02:45:05;3.50;;;2.22;;
793;SDS011;380;48.738;9.214;2023-08-01T02:47:31;3.97;;;2.70;;
793;SDS011;380;48.738;9.214;2023-08-01T02:49:57;3.25;;;2.10;;
793;SDS011;380;48.738;9.214;2023-08-01T02:52:23;5.40;;;2.60;;
793;SDS011;380;48.738;9.214;2023-08-01T02:54:48;5.57;;;2.38;;
793;SDS011;380;48.738;9.214;2023-08-01T02:57:15;3.33;;;2.47;;
793;SDS011;380;48.738;9.214;2023-08-01T02:59:41;4.32;;;2.67;;
793;SDS011;380;48.738;9.214;2023-08-01T03:02:09;3.05;;;2.47;;
793;SDS011;380;48.738;9.214;2023-08-01T03:04:35;2.78;;;2.15;;
793;SDS011;380;48.738;9.214;2023-08-01T03:07:01;4.40;;;2.50;;
793;SDS011;380;48.738;9.214;2023-08-01T03:09:27;5.10;;;2.78;;
793;SDS011;380;48.738;9.214;2023-08-01T03:11:53;3.05;;;2.22;;
793;SDS011;380;48.738;9.214;2023-08-01T03:14:19;3.03;;;2.38;;
793;SDS011;380;48.738;9.214;2023-08-01T03:16:45;3.53;;;2.47;;
793;SDS011;380;48.738;9.214;2023-08-01T03:19:11;4.38;;;2.63;;
793;SDS011;380;48.738;9.214;2023-08-01T03:21:38;4.85;;;2.85;;
793;SDS011;380;48.738;9.214;2023-08-01T03:24:04;4.28;;;2.30;;
793;SDS011;380;48.738;9.214;2023-08-01T03:26:33;2.92;;;1.92;;
793;SDS011;380;48.738;9.214;2023-08-01T03:28:59;3.55;;;2.33;;
793;SDS011;380;48.738;9.214;2023-08-01T03:31:25;2.90;;;2.08;;
793;SDS011;380;48.738;9.214;2023-08-01T03:33:51;3.72;;;2.28;;
793;SDS011;380;48.738;9.214;2023-08-01T03:36:17;4.80;;;2.60;;
793;SDS011;380;48.738;9.214;2023-08-01T03:38:43;3.70;;;2.60;;
793;SDS011;380;48.738;9.214;2023-08-01T03:41:09;4.13;;;1.83;;
793;SDS011;380;48.738;9.214;2023-08-01T03:43:35;2.97;;;2.20;;
793;SDS011;380;48.738;9.214;2023-08-01T03:46:01;3.72;;;2.22;;
793;SDS011;380;48.738;9.214;2023-08-01T03:48:27;2.83;;;1.90;;
793;SDS011;380;48.738;9.214;2023-08-01T03:50:53;2.80;;;1.95;;
793;SDS011;380;48.738;9.214;2023-08-01T03:53:19;4.63;;;2.20;;
793;SDS011;380;48.738;9.214;2023-08-01T03:55:46;5.38;;;2.50;;
793;SDS011;380;48.738;9.214;2023-08-01T03:58:13;3.53;;;2.00;;
793;SDS011;380;48.738;9.214;2023-08-01T04:00:39;4.25;;;2.20;;
793;SDS011;380;48.738;9.214;2023-08-01T04:03:05;2.67;;;2.00;;
793;SDS011;380;48.738;9.214;2023-08-01T04:05:31;5.13;;;2.00;;
793;SDS011;380;48.738;9.214;2023-08-01T04:07:57;4.10;;;2.42;;
793;SDS011;380;48.738;9.214;2023-08-01T04:10:23;3.15;;;2.30;;
793;SDS011;380;48.738;9.214;2023-08-01T04:12:49;2.80;;;1.80;;
793;SDS011;380;48.738;9.214;2023-08-01T04:15:15;5.88;;;2.03;;
793;SDS011;380;48.738;9.214;2023-08-01T04:17:41;3.55;;;2.00;;
793;SDS011;380;48.738;9.214;2023-08-01T04:20:07;5.65;;;2.65;;
793;SDS011;380;48.738;9.214;2023-08-01T04:22:33;2.85;;;1.80;;
793;SDS011;380;48.738;9.214;2023-08-01T04:25:00;4.47;;;2.90;;
793;SDS011;380;48.738;9.214;2023-08-01T04:27:26;4.50;;;2.20;;
793;SDS011;380;48.738;9.214;2023-08-01T04:29:52;3.35;;;2.47;;
793;SDS011;380;48.738;9.214;2023-08-01T04:32:19;7.72;;;2.72;;
793;SDS011;380;48.738;9.214;2023-08-01T04:34:45;4.15;;;2.28;;
793;SDS011;380;48.738;9.214;2023-08-01T04:37:11;2.95;;;2.00;;
793;SDS011;380;48.738;9.214;2023-08-01T04:39:37;5.63;;;2.25;;
793;SDS011;380;48.738;9.214;2023-08-01T04:42:03;3.78;;;2.58;;
793;SDS011;380;48.738;9.214;2023-08-01T04:44:29;3.38;;;1.77;;
793;SDS011;380;48.738;9.214;2023-08-01T04:46:55;4.05;;;2.35;;
793;SDS011;380;48.738;9.214;2023-08-01T04:49:24;5.13;;;2.55;;
793;SDS011;380;48.738;9.214;2023-08-01T04:51:50;4.28;;;1.85;;
793;SDS011;380;48.738;9.214;2023-08-01T04:54:17;3.50;;;1.92;;
793;SDS011;380;48.738;9.214;2023-08-01T04:56:42;4.05;;;2.15;;
793;SDS011;380;48.738;9.214;2023-08-01T04:59:08;3.28;;;2.05;;
793;SDS011;380;48.738;9.214;2023-08-01T05:01:34;3.60;;;2.47;;
793;SDS011;380;48.738;9.214;2023-08-01T05:04:00;3.83;;;1.50;;
793;SDS011;380;48.738;9.214;2023-08-01T05:06:26;3.47;;;2.05;;
793;SDS011;380;48.738;9.214;2023-08-01T05:08:55;6.05;;;1.92;;
793;SDS011;380;48.738;9.214;2023-08-01T05:11:21;3.45;;;2.10;;
793;SDS011;380;48.738;9.214;2023-08-01T05:13:47;4.47;;;3.13;;
793;SDS011;380;48.738;9.214;2023-08-01T05:16:13;4.72;;;2.38;;
793;SDS011;380;48.738;9.214;2023-08-01T05:18:39;3.92;;;1.95;;
793;SDS011;380;48.738;9.214;2023-08-01T05:21:05;3.72;;;2.10;;
793;SDS011;380;48.738;9.214;2023-08-01T05:23:30;4.53;;;2.05;;
793;SDS011;380;48.738;9.214;2023-08-01T05:25:56;3.10;;;1.70;;
793;SDS011;380;48.738;9.214;2023-08-01T05:28:22;5.05;;;2.42;;
793;SDS011;380;48.738;9.214;2023-08-01T05:30:48;3.50;;;2.33;;
793;SDS011;380;48.738;9.214;2023-08-01T05:33:14;2.88;;;1.58;;
793;SDS011;380;48.738;9.214;2023-08-01T05:35:40;4.32;;;2.67;;
793;SDS011;380;48.738;9.214;2023-08-01T05:38:06;4.75;;;2.58;;
793;SDS011;380;48.738;9.214;2023-08-01T05:40:32;4.22;;;2.13;;
793;SDS011;380;48.738;9.214;2023-08-01T05:42:58;3.97;;;2.17;;
793;SDS011;380;48.738;9.214;2023-08-01T05:45:24;3.65;;;2.35;;
793;SDS011;380;48.738;9.214;2023-08-01T05:47:50;5.47;;;3.28;;
793;SDS011;380;48.738;9.214;2023-08-01T05:50:16;3.08;;;2.22;;
793;SDS011;380;48.738;9.214;2023-08-01T05:52:42;3.42;;;2.38;;
793;SDS011;380;48.738;9.214;2023-08-01T05:55:07;3.47;;;2.65;;
793;SDS011;380;48.738;9.214;2023-08-01T05:57:33;3.95;;;2.17;;
793;SDS011;380;48.738;9.214;2023-08-01T05:59:59;4.32;;;2.50;;
793;SDS011;380;48.738;9.214;2023-08-01T06:02:25;4.65;;;2.42;;
793;SDS011;380;48.738;9.214;2023-08-01T06:04:52;4.05;;;2.83;;
793;SDS011;380;48.738;9.214;2023-08-01T06:07:18;4.32;;;2.78;;
793;SDS011;380;48.738;9.214;2023-08-01T06:09:48;6.25;;;3.28;;
793;SDS011;380;48.738;9.214;2023-08-01T06:12:16;5.53;;;2.13;;
793;SDS011;380;48.738;9.214;2023-08-01T06:14:42;6.75;;;2.67;;
793;SDS011;380;48.738;9.214;2023-08-01T06:17:08;4.03;;;2.63;;
793;SDS011;380;48.738;9.214;2023-08-01T06:19:34;3.22;;;2.58;;
793;SDS011;380;48.738;9.214;2023-08-01T06:22:00;4.57;;;2.47;;
793;SDS011;380;48.738;9.214;2023-08-01T06:24:26;3.40;;;2.45;;
793;SDS011;380;48.738;9.214;2023-08-01T06:26:52;7.97;;;2.72;;
793;SDS011;380;48.738;9.214;2023-08-01T06:29:18;4.38;;;2.33;;
793;SDS011;380;48.738;9.214;2023-08-01T06:31:44;2.97;;;1.98;;
793;SDS011;380;48.738;9.214;2023-08-01T06:34:10;5.10;;;2.33;;
793;SDS011;380;48.738;9.214;2023-08-01T06:36:35;4.75;;;2.70;;
793;SDS011;380;48.738;9.214;2023-08-01T06:39:01;2.80;;;1.88;;
793;SDS011;380;48.738;9.214;2023-08-01T06:41:28;4.57;;;2.40;;
793;SDS011;380;48.738;9.214;2023-08-01T06:43:54;3.70;;;2.20;;
793;SDS011;380;48.738;9.214;2023-08-01T06:46:20;5.15;;;3.05;;
793;SDS011;380;48.738;9.214;2023-08-01T06:48:46;3.75;;;2.92;;
793;SDS011;380;48.738;9.214;2023-08-01T06:51:12;4.28;;;2.78;;
793;SDS011;380;48.738;9.214;2023-08-01T06:53:38;4.80;;;3.17;;
793;SDS011;380;48.738;9.214;2023-08-01T06:56:04;7.70;;;3.05;;
793;SDS011;380;48.738;9.214;2023-08-01T06:58:30;4.25;;;3.10;;
793;SDS011;380;48.738;9.214;2023-08-01T07:00:55;4.55;;;2.72;;
793;SDS011;380;48.738;9.214;2023-08-01T07:03:21;4.80;;;3.13;;
793;SDS011;380;48.738;9.214;2023-08-01T07:05:47;5.57;;;2.88;;
793;SDS011;380;48.738;9.214;2023-08-01T07:08:13;5.15;;;3.45;;
793;SDS011;380;48.738;9.214;2023-08-01T07:10:39;5.03;;;3.13;;
793;SDS011;380;48.738;9.214;2023-08-01T07:13:05;4.65;;;3.25;;
793;SDS011;380;48.738;9.214;2023-08-01T07:15:31;3.67;;;2.53;;
793;SDS011;380;48.738;9.214;2023-08-01T07:17:57;4.18;;;2.90;;
793;SDS011;380;48.738;9.214;2023-08-01T07:20:23;4.70;;;3.05;;
793;SDS011;380;48.738;9.214;2023-08-01T07:22:49;4.55;;;3.00;;
793;SDS011;380;48.738;9.214;2023-08-01T07:25:15;5.63;;;3.55;;
793;SDS011;380;48.738;9.214;2023-08-01T07:27:42;4.90;;;3.25;;
793;SDS011;380;48.738;9.214;2023-08-01T07:30:08;4.82;;;3.03;;
793;SDS011;380;48.738;9.214;2023-08-01T07:32:37;4.10;;;2.70;;
793;SDS011;380;48.738;9.214;2023-08-01T07:35:04;5.50;;;2.85;;
793;SDS011;380;48.738;9.214;2023-08-01T07:37:30;3.95;;;3.08;;
793;SDS011;380;48.738;9.214;2023-08-01T07:39:56;4.38;;;2.97;;
793;SDS011;380;48.738;9.214;2023-08-01T07:42:22;4.75;;;3.03;;
793;SDS011;380;48.738;9.214;2023-08-01T07:44:48;7.50;;;2.90;;
793;SDS011;380;48.738;9.214;2023-08-01T07:47:14;7.05;;;3.65;;
793;SDS011;380;48.738;9.214;2023-08-01T07:49:40;5.40;;;2.55;;
793;SDS011;380;48.738;9.214;2023-08-01T07:52:06;3.72;;;2.70;;
793;SDS011;380;48.738;9.214;2023-08-01T07:54:32;4.45;;;2.92;;
793;SDS011;380;48.738;9.214;2023-08-01T07:56:58;3.75;;;2.28;;
793;SDS011;380;48.738;9.214;2023-08-01T07:59:24;2.88;;;2.13;;
793;SDS011;380;48.738;9.214;2023-08-01T08:01:50;3.28;;;2.38;;
793;SDS011;380;48.738;9.214;2023-08-01T08:04:17;3.42;;;2.40;;
793;SDS011;380;48.738;9.214;2023-08-01T08:06:43;3.05;;;2.20;;
793;SDS011;380;48.738;9.214;2023-08-01T08:09:09;3.70;;;1.85;;
793;SDS011;380;48.738;9.214;2023-08-01T08:11:35;2.60;;;2.08;;
793;SDS011;380;48.738;9.214;2023-08-01T08:14:01;3.42;;;2.25;;
793;SDS011;380;48.738;9.214;2023-08-01T08:16:27;3.80;;;2.03;;
793;SDS011;380;48.738;9.214;2023-08-01T08:18:53;2.78;;;1.73;;
793;SDS011;380;48.738;9.214;2023-08-01T08:21:19;3.40;;;1.98;;
793;SDS011;380;48.738;9.214;2023-08-01T08:23:45;3.38;;;2.08;;
793;SDS011;380;48.738;9.214;2023-08-01T08:26:11;3.05;;;1.80;;
793;SDS011;380;48.738;9.214;2023-08-01T08:28:37;3.15;;;1.98;;
793;SDS011;380;48.738;9.214;2023-08-01T08:31:04;4.03;;;2.60;;
793;SDS011;380;48.738;9.214;2023-08-01T08:33:30;7.35;;;2.38;;
793;SDS011;380;48.738;9.214;2023-08-01T08:35:56;4.05;;;2.17;;
793;SDS011;380;48.738;9.214;2023-08-01T08:38:22;5.47;;;2.30;;
793;SDS011;380;48.738;9.214;2023-08-01T08:43:33;4.00;;;2.72;;
793;SDS011;380;48.738;9.214;2023-08-01T08:46:00;4.07;;;2.08;;
793;SDS011;380;48.738;9.214;2023-08-01T08:48:26;4.13;;;2.35;;
793;SDS011;380;48.738;9.214;2023-08-01T08:50:52;4.05;;;2.35;;
793;SDS011;380;48.738;9.214;2023-08-01T08:53:18;4.88;;;2.78;;
793;SDS011;380;48.738;9.214;2023-08-01T08:55:44;2.13;;;1.42;;
793;SDS011;380;48.738;9.214;2023-08-01T08:58:11;4.60;;;2.38;;
793;SDS011;380;48.738;9.214;2023-08-01T09:00:37;4.20;;;2.22;;
793;SDS011;380;48.738;9.214;2023-08-01T09:03:06;3.45;;;2.40;;
793;SDS011;380;48.738;9.214;2023-08-01T09:05:34;5.50;;;2.25;;
793;SDS011;380;48.738;9.214;2023-08-01T09:08:01;2.85;;;2.03;;
793;SDS011;380;48.738;9.214;2023-08-01T09:10:31;4.70;;;2.33;;
793;SDS011;380;48.738;9.214;2023-08-01T09:12:57;2.75;;;1.50;;
793;SDS011;380;48.738;9.214;2023-08-01T09:15:24;3.30;;;1.73;;
793;SDS011;380;48.738;9.214;2023-08-01T09:17:51;3.35;;;1.58;;
793;SDS011;380;48.738;9.214;2023-08-01T09:20:17;2.75;;;1.60;;
793;SDS011;380;48.738;9.214;2023-08-01T09:22:44;2.95;;;1.63;;
793;SDS011;380;48.738;9.214;2023-08-01T09:25:11;2.42;;;1.45;;
793;SDS011;380;48.738;9.214;2023-08-01T09:27:37;2.45;;;1.27;;
793;SDS011;380;48.738;9.214;2023-08-01T09:30:10;2.50;;;1.38;;
793;SDS011;380;48.738;9.214;2023-08-01T09:32:38;2.58;;;1.33;;
793;SDS011;380;48.738;9.214;2023-08-01T09:35:04;2.30;;;1.48;;
793;SDS011;380;48.738;9.214;2023-08-01T09:37:39;2.70;;;1.40;;
793;SDS011;380;48.738;9.214;2023-08-01T09:40:06;2.00;;;1.13;;
793;SDS011;380;48.738;9.214;2023-08-01T09:42:38;2.92;;;1.30;;
793;SDS011;380;48.738;9.214;2023-08-01T09:45:11;2.28;;;1.20;;
793;SDS011;380;48.738;9.214;2023-08-01T09:47:44;2.20;;;1.10;;
793;SDS011;380;48.738;9.214;2023-08-01T09:50:10;2.08;;;1.00;;
793;SDS011;380;48.738;9.214;2023-08-01T09:52:38;1.92;;;1.02;;
793;SDS011;380;48.738;9.214;2023-08-01T09:55:04;2.10;;;0.70;;
793;SDS011;380;48.738;9.214;2023-08-01T09:57:30;4.55;;;1.30;;
793;SDS011;380;48.738;9.214;2023-08-01T09:59:57;1.77;;;0.80;;
793;SDS011;380;48.738;9.214;2023-08-01T10:02:26;1.83;;;0.90;;
793;SDS011;380;48.738;9.214;2023-08-01T10:04:54;3.33;;;1.08;;
793;SDS011;380;48.738;9.214;2023-08-01T10:07:23;1.73;;;0.63;;
793;SDS011;380;48.738;9.214;2023-08-01T10:09:49;1.30;;;0.63;;
793;SDS011;380;48.738;9.214;2023-08-01T10:12:17;1.08;;;0.50;;
793;SDS011;380;48.738;9.214;2023-08-01T10:14:43;1.15;;;0.52;;
793;SDS011;380;48.738;9.214;2023-08-01T10:17:10;1.25;;;0.65;;
793;SDS011;380;48.738;9.214;2023-08-01T10:19:36;1.33;;;0.47;;
793;SDS011;380;48.738;9.214;2023-08-01T10:22:03;1.02;;;0.50;;
793;SDS011;380;48.738;9.214;2023-08-01T10:24:29;0.80;;;0.45;;
793;SDS011;380;48.738;9.214;2023-08-01T10:26:56;1.35;;;0.63;;
793;SDS011;380;48.738;9.214;2023-08-01T10:29:22;1.70;;;0.68;;
793;SDS011;380;48.738;9.214;2023-08-01T10:31:59;1.48;;;0.55;;
793;SDS011;380;48.738;9.214;2023-08-01T10:34:25;1.55;;;0.75;;
793;SDS011;380;48.738;9.214;2023-08-01T10:36:57;1.85;;;0.55;;
793;SDS011;380;48.738;9.214;2023-08-01T10:39:24;1.33;;;0.60;;
793;SDS011;380;48.738;9.214;2023-08-01T10:42:00;0.93;;;0.43;;
793;SDS011;380;48.738;9.214;2023-08-01T10:44:26;1.30;;;0.40;;
793;SDS011;380;48.738;9.214;2023-08-01T10:49:38;0.98;;;0.30;;
793;SDS011;380;48.738;9.214;2023-08-01T10:52:15;1.20;;;0.60;;
793;SDS011;380;48.738;9.214;2023-08-01T10:54:42;0.88;;;0.30;;
793;SDS011;380;48.738;9.214;2023-08-01T10:57:08;1.33;;;0.60;;
793;SDS011;380;48.738;9.214;2023-08-01T10:59:34;1.23;;;0.50;;
793;SDS011;380;48.738;9.214;2023-08-01T11:02:00;0.95;;;0.30;;
793;SDS011;380;48.738;9.214;2023-08-01T11:04:26;0.40;;;0.20;;
793;SDS011;380;48.738;9.214;2023-08-01T11:06:53;0.80;;;0.40;;
793;SDS011;380;48.738;9.214;2023-08-01T11:09:21;0.77;;;0.40;;
793;SDS011;380;48.738;9.214;2023-08-01T11:11:54;0.75;;;0.38;;
793;SDS011;380;48.738;9.214;2023-08-01T11:14:24;1.08;;;0.40;;
793;SDS011;380;48.738;9.214;2023-08-01T11:16:50;1.48;;;0.47;;
793;SDS011;380;48.738;9.214;2023-08-01T11:19:20;0.98;;;0.47;;
793;SDS011;380;48.738;9.214;2023-08-01T11:21:46;1.80;;;0.52;;
793;SDS011;380;48.738;9.214;2023-08-01T11:24:12;0.52;;;0.30;;
793;SDS011;380;48.738;9.214;2023-08-01T11:26:42;1.00;;;0.40;;
793;SDS011;380;48.738;9.214;2023-08-01T11:29:08;1.50;;;0.52;;
793;SDS011;380;48.738;9.214;2023-08-01T11:31:34;1.52;;;0.70;;
793;SDS011;380;48.738;9.214;2023-08-01T11:34:00;1.45;;;0.60;;
793;SDS011;380;48.738;9.214;2023-08-01T11:36:27;0.80;;;0.30;;
793;SDS011;380;48.738;9.214;2023-08-01T11:38:53;1.30;;;0.60;;
793;SDS011;380;48.738;9.214;2023-08-01T11:41:19;1.55;;;0.60;;
793;SDS011;380;48.738;9.214;2023-08-01T11:43:45;1.63;;;0.60;;
793;SDS011;380;48.738;9.214;2023-08-01T11:46:12;0.85;;;0.40;;
793;SDS011;380;48.738;9.214;2023-08-01T11:48:38;1.70;;;0.60;;
793;SDS011;380;48.738;9.214;2023-08-01T11:51:04;1.58;;;0.63;;
793;SDS011;380;48.738;9.214;2023-08-01T11:53:30;1.25;;;0.57;;
793;SDS011;380;48.738;9.214;2023-08-01T11:56:03;0.98;;;0.50;;
793;SDS011;380;48.738;9.214;2023-08-01T12:01:05;1.50;;;0.82;;
793;SDS011;380;48.738;9.214;2023-08-01T12:03:31;1.67;;;0.75;;
793;SDS011;380;48.738;9.214;2023-08-01T12:06:05;1.10;;;0.50;;
793;SDS011;380;48.738;9.214;2023-08-01T12:08:34;1.10;;;0.40;;
793;SDS011;380;48.738;9.214;2023-08-01T12:11:00;1.80;;;0.80;;
793;SDS011;380;48.738;9.214;2023-08-01T12:13:27;1.27;;;0.63;;
793;SDS011;380;48.738;9.214;2023-08-01T12:15:53;1.23;;;0.60;;
793;SDS011;380;48.738;9.214;2023-08-01T12:18:27;1.52;;;0.73;;
793;SDS011;380;48.738;9.214;2023-08-01T12:20:54;1.27;;;0.63;;
793;SDS011;380;48.738;9.214;2023-08-01T12:23:20;2.15;;;0.82;;
793;SDS011;380;48.738;9.214;2023-08-01T12:25:46;1.10;;;0.50;;
793;SDS011;380;48.738;9.214;2023-08-01T12:28:15;1.40;;;0.63;;
793;SDS011;380;48.738;9.214;2023-08-01T12:30:41;3.40;;;0.63;;
793;SDS011;380;48.738;9.214;2023-08-01T12:33:07;2.05;;;0.88;;
793;SDS011;380;48.738;9.214;2023-08-01T12:35:33;1.15;;;0.43;;
793;SDS011;380;48.738;9.214;2023-08-01T12:37:59;1.25;;;0.68;;
793;SDS011;380;48.738;9.214;2023-08-01T12:40:25;3.72;;;0.77;;
793;SDS011;380;48.738;9.214;2023-08-01T12:42:51;1.33;;;0.65;;
793;SDS011;380;48.738;9.214;2023-08-01T12:45:18;1.60;;;0.65;;
793;SDS011;380;48.738;9.214;2023-08-01T12:47:44;1.45;;;0.70;;
793;SDS011;380;48.738;9.214;2023-08-01T12:50:10;1.08;;;0.68;;
793;SDS011;380;48.738;9.214;2023-08-01T12:52:36;1.85;;;0.70;;
793;SDS011;380;48.738;9.214;2023-08-01T12:55:02;2.35;;;0.98;;
793;SDS011;380;48.738;9.214;2023-08-01T12:57:28;0.90;;;0.47;;
793;SDS011;380;48.738;9.214;2023-08-01T12:59:53;4.35;;;0.80;;
793;SDS011;380;48.738;9.214;2023-08-01T13:02:19;1.60;;;0.70;;
793;SDS011;380;48.738;9.214;2023-08-01T13:04:45;1.98;;;0.63;;
793;SDS011;380;48.738;9.214;2023-08-01T13:07:11;6.47;;;1.02;;
793;SDS011;380;48.738;9.214;2023-08-01T13:09:37;1.48;;;0.77;;
793;SDS011;380;48.738;9.214;2023-08-01T13:12:03;1.20;;;0.60;;
793;SDS011;380;48.738;9.214;2023-08-01T13:14:31;1.60;;;0.75;;
793;SDS011;380;48.738;9.214;2023-08-01T13:16:57;1.77;;;0.60;;
793;SDS011;380;48.738;9.214;2023-08-01T13:19:24;1.42;;;0.65;;
793;SDS011;380;48.738;9.214;2023-08-01T13:21:50;2.53;;;0.80;;
793;SDS011;380;48.738;9.214;2023-08-01T13:24:16;1.90;;;0.75;;
793;SDS011;380;48.738;9.214;2023-08-01T13:26:42;0.93;;;0.50;;
793;SDS011;380;48.738;9.214;2023-08-01T13:29:07;1.60;;;0.80;;
793;SDS011;380;48.738;9.214;2023-08-01T13:31:33;1.25;;;0.45;;
793;SDS011;380;48.738;9.214;2023-08-01T13:33:59;0.95;;;0.50;;
793;SDS011;380;48.738;9.214;2023-08-01T13:36:25;2.15;;;0.93;;
793;SDS011;380;48.738;9.214;2023-08-01T13:38:51;2.75;;;0.52;;
793;SDS011;380;48.738;9.214;2023-08-01T13:41:17;1.80;;;0.70;;
793;SDS011;380;48.738;9.214;2023-08-01T13:43:43;1.58;;;0.60;;
793;SDS011;380;48.738;9.214;2023-08-01T13:46:11;1.85;;;0.75;;
793;SDS011;380;48.738;9.214;2023-08-01T13:48:38;0.80;;;0.40;;
793;SDS011;380;48.738;9.214;2023-08-01T13:51:04;2.22;;;0.95;;
793;SDS011;380;48.738;9.214;2023-08-01T13:53:30;0.88;;;0.40;;
793;SDS011;380;48.738;9.214;2023-08-01T13:55:56;1.10;;;0.50;;
793;SDS011;380;48.738;9.214;2023-08-01T13:58:22;7.47;;;1.00;;
793;SDS011;380;48.738;9.214;2023-08-01T14:00:48;1.85;;;0.95;;
793;SDS011;380;48.738;9.214;2023-08-01T14:03:14;2.00;;;0.70;;
793;SDS011;380;48.738;9.214;2023-08-01T14:05:40;1.27;;;0.60;;
793;SDS011;380;48.738;9.214;2023-08-01T14:08:06;1.30;;;0.70;;
793;SDS011;380;48.738;9.214;2023-08-01T14:10:31;1.73;;;0.80;;
793;SDS011;380;48.738;9.214;2023-08-01T14:12:58;1.15;;;0.50;;
793;SDS011;380;48.738;9.214;2023-08-01T14:15:23;1.20;;;0.50;;
793;SDS011;380;48.738;9.214;2023-08-01T14:17:49;2.58;;;0.90;;
793;SDS011;380;48.738;9.214;2023-08-01T14:20:17;1.52;;;0.68;;
793;SDS011;380;48.738;9.214;2023-08-01T14:22:43;1.83;;;0.82;;
793;SDS011;380;48.738;9.214;2023-08-01T14:25:10;1.42;;;0.60;;
793;SDS011;380;48.738;9.214;2023-08-01T14:27:35;1.73;;;0.52;;
793;SDS011;380;48.738;9.214;2023-08-01T14:30:02;1.50;;;0.88;;
793;SDS011;380;48.738;9.214;2023-08-01T14:32:28;1.45;;;0.70;;
793;SDS011;380;48.738;9.214;2023-08-01T14:34:54;1.88;;;0.43;;
793;SDS011;380;48.738;9.214;2023-08-01T14:37:20;2.28;;;1.05;;
793;SDS011;380;48.738;9.214;2023-08-01T14:39:49;1.48;;;0.80;;
793;SDS011;380;48.738;9.214;2023-08-01T14:42:15;1.92;;;0.90;;
793;SDS011;380;48.738;9.214;2023-08-01T14:44:41;1.63;;;0.73;;
793;SDS011;380;48.738;9.214;2023-08-01T14:47:07;1.35;;;0.55;;
793;SDS011;380;48.738;9.214;2023-08-01T14:49:33;1.33;;;0.63;;
793;SDS011;380;48.738;9.214;2023-08-01T14:51:59;1.05;;;0.50;;
793;SDS011;380;48.738;9.214;2023-08-01T14:54:25;1.88;;;0.80;;
793;SDS011;380;48.738;9.214;2023-08-01T14:56:51;1.40;;;0.70;;
793;SDS011;380;48.738;9.214;2023-08-01T14:59:17;1.67;;;0.80;;
793;SDS011;380;48.738;9.214;2023-08-01T15:01:43;1.77;;;0.65;;
793;SDS011;380;48.738;9.214;2023-08-01T15:04:09;1.58;;;0.55;;
793;SDS011;380;48.738;9.214;2023-08-01T15:06:35;1.33;;;0.55;;
793;SDS011;380;48.738;9.214;2023-08-01T15:09:01;1.77;;;0.80;;
793;SDS011;380;48.738;9.214;2023-08-01T15:11:27;1.50;;;0.60;;
793;SDS011;380;48.738;9.214;2023-08-01T15:13:53;1.73;;;0.50;;
793;SDS011;380;48.738;9.214;2023-08-01T15:16:19;1.35;;;0.70;;
793;SDS011;380;48.738;9.214;2023-08-01T15:18:45;1.13;;;0.60;;
793;SDS011;380;48.738;9.214;2023-08-01T15:21:11;2.78;;;0.88;;
793;SDS011;380;48.738;9.214;2023-08-01T15:23:37;2.13;;;1.08;;
793;SDS011;380;48.738;9.214;2023-08-01T15:26:03;1.83;;;0.82;;
793;SDS011;380;48.738;9.214;2023-08-01T15:28:29;1.45;;;0.80;;
793;SDS011;380;48.738;9.214;2023-08-01T15:31:04;1.33;;;0.68;;
793;SDS011;380;48.738;9.214;2023-08-01T15:33:31;1.77;;;0.80;;
793;SDS011;380;48.738;9.214;2023-08-01T15:36:01;1.92;;;0.77;;
793;SDS011;380;48.738;9.214;2023-08-01T15:38:28;2.45;;;0.52;;
793;SDS011;380;48.738;9.214;2023-08-01T15:40:55;1.25;;;0.68;;
793;SDS011;380;48.738;9.214;2023-08-01T15:43:22;1.33;;;0.60;;
793;SDS011;380;48.738;9.214;2023-08-01T15:45:48;2.70;;;0.80;;
793;SDS011;380;48.738;9.214;2023-08-01T15:48:14;1.92;;;0.90;;
793;SDS011;380;48.738;9.214;2023-08-01T15:50:40;2.05;;;0.82;;